Tiempo atmosférico en la estación meteorológica de Medina De Rioseco, Valladolid (731 m.)



Fecha
DESCASC
Temp. máxima en grados centígrados (hora)
DESCASC
Temp. mínima en grados centígrados (hora)
DESCASC
Temp. media en grados centígrados
DESCASC
Racha de viento máxima en m/sg (hora)
DESCASC
Velocidad máxima media en intervalos de 10 minutos(hora)
DESCASC
Precipitaciones diarias en mm
DESCASC
Precipitaciones de 00:00 a 06:00 en mm
DESCASC
Precipitaciones de 06:00 a 12:00 en mm
DESCASC
Precipitaciones de 12:00 a 18:00 en mm
DESCASC
Precipitaciones de 18:00 a 24:00 en mm
DESCASC
14-07-2019 29.3 (18:20) 14.5 (00:00) 21.9 11.39 (23:10) 7.22 (23:00) 0 0 0 0 0
13-07-2019 32.9 (14:10) 17.6 (00:00) 25.3 15.56 (15:30) 8.06 (15:30) 9.6 0 0 9.6 0
12-07-2019 37.4 (17:10) 16.1 (00:00) 26.8 7.78 (15:00) 3.89 (15:30) 0 0 0 0 0
11-07-2019 34.6 (18:30) 12.8 (00:00) 23.7 6.67 (18:20) 3.61 (16:40) 0 0 0 0 0
10-07-2019 30.4 (18:10) 10.5 (00:00) 20.4 7.5 (02:20) 4.17 (10:30) 0 0 0 0 0
09-07-2019 26.5 (19:10) 14.6 (00:00) 20.6 8.61 (21:40) 5.28 (21:40) 0 0 0 0 0
08-07-2019 29.8 (16:30) 14.8 (00:00) 22.3 16.11 (18:40) 8.33 (18:00) 12 0 0 5.8 6.2
07-07-2019 32.1 (18:30) 12.5 (00:00) 22.3 8.33 (23:50) 5 (23:40) 0 0 0 0 0
06-07-2019 31.4 (18:00) 11 (06:40) 21.2 10 (18:30) 5.56 (15:30) 0 0 0 0 0
05-07-2019 31.5 (18:20) 12.6 (00:00) 22.1 8.06 (17:50) 4.72 (17:50) 0 0 0 0 0
04-07-2019 29.1 (15:20) 15.2 (00:00) 22.2 14.72 (17:20) 7.22 (17:20) 12.4 0 2 10.4 0
03-07-2019 33.1 (15:50) 15.2 (00:00) 24.1 12.78 (17:00) 7.22 (17:00) 0.4 0 0 0.4 0
02-07-2019 33.6 (18:10) 13.9 (04:20) 23.7 11.11 (05:10) 6.11 (21:00) 0 0 0 0 0
01-07-2019 30.3 (16:40) 15.1 (07:10) 22.7 12.78 (20:20) 7.22 (21:20) 0 0 0 0 0
30-06-2019 36.5 (18:30) 16.6 (07:00) 26.6 9.72 (15:20) 5.56 (19:50) 0 0 0 0 0
29-06-2019 38.2 (18:10) 17 (00:00) 27.6 7.78 (13:10) 5 (02:50) 0 0 0 0 0
28-06-2019 39.3 (17:00) 14.8 (00:00) 27 10.83 (18:50) 6.39 (18:50) 0 0 0 0 0
27-06-2019 36.7 (17:30) 15.7 (00:00) 26.2 15 (16:00) 7.22 (20:30) 0 0 0 0 0
26-06-2019 32.8 (16:20) 15 (00:00) 23.9 10.28 (14:20) 5.56 (18:20) 0 0 0 0 0
25-06-2019 26.4 (18:20) 13.9 (00:00) 20.1 7.78 (15:00) 4.72 (14:50) 0.2 0.2 0 0 0
24-06-2019 24.5 (14:30) 14.7 (00:00) 19.6 10.83 (15:00) 6.39 (16:30) 0.6 0 0 0 0.6
23-06-2019 27.6 (16:30) 12.7 (00:00) 20.2 11.39 (14:00) 6.67 (14:20) 0 0 0 0 0
22-06-2019 30.3 (18:30) 9.7 (00:00) 20 10 (16:10) 5.28 (19:20) 0 0 0 0 0
21-06-2019 23.6 (17:50) 10.3 (00:00) 17 10 (01:20) 5.83 (01:10) 0 0 0 0 0
20-06-2019 25.5 (18:10) 11.4 (00:00) 18.4 11.11 (19:20) 6.39 (19:20) 7.8 0 0 0 7.8
19-06-2019 -- (--) -- (--) -- -- (--) -- (--) -- 0 0.6 -- 0
18-06-2019 27.2 (15:30) 8.8 (00:00) 18 15.83 (14:00) 9.72 (13:50) 0 0 0 0 0
17-06-2019 29.2 (15:50) 8.1 (00:00) 18.7 10.83 (16:20) 6.39 (18:50) 0 0 0 0 0
16-06-2019 27.7 (17:30) 7.4 (00:00) 17.6 6.67 (18:10) 4.17 (02:50) 0 0 0 0 0

Gráficas

Temp. máximas Temp. mínimas Temp. medias Precipitaciones Rachas de viento máximas Velocidades máximas media en intervalos de 10 minutos

Datos horarios

Fecha y hora oficial Temperatura (ºC) Velocidad del viento (km/h) Dirección del viento Racha (km/h) Dirección de racha Precipitación (mm) Presión (hPa) Tendencia (hPa) Humedad (%)
2019-07-15 23:00:00 22.5 24 Este 41 Este 0 -- -- 54
2019-07-15 22:00:00 25.2 10 Este 19 Este 0 -- -- 33
2019-07-15 21:00:00 26.9 10 Este 19 Sudeste 0 -- -- 28
2019-07-15 20:00:00 28.9 9 Este 18 Este 0 -- -- 26
2019-07-15 19:00:00 29.8 9 Nordeste 20 Nordeste 0 -- -- 27
2019-07-15 18:00:00 30 6 Nordeste 23 Norte 0 -- -- 28
2019-07-15 17:00:00 29.8 5 Norte 21 Nordeste 0 -- -- 29
2019-07-15 16:00:00 28.9 10 Nordeste 24 Este 0 -- -- 32
2019-07-15 15:00:00 27.7 7 Nordeste 18 Este 0 -- -- 36
2019-07-15 14:00:00 26.7 9 Nordeste 19 Nordeste 0 -- -- 38
2019-07-15 13:00:00 25.5 12 Nordeste 24 Este 0 -- -- 36
2019-07-15 12:00:00 23.6 14 Este 30 Nordeste 0 -- -- 41
2019-07-15 11:00:00 21.5 14 Este 28 Este 0 -- -- 48
2019-07-15 10:00:00 19.5 14 Este 28 Este 0 -- -- 55
2019-07-15 09:00:00 16.9 12 Este 26 Este 0 -- -- 64
2019-07-15 08:00:00 14.5 8 Nordeste 14 Nordeste 0 -- -- 72
2019-07-15 07:00:00 13.7 6 Nordeste 13 Nordeste 0 -- -- 76
2019-07-15 06:00:00 14.4 4 Nordeste 10 Este 0 -- -- 74
2019-07-15 05:00:00 15.6 5 Nordeste 15 Nordeste 0 -- -- 71
2019-07-15 04:00:00 16.3 3 Nordeste 15 Este 0 -- -- 72
2019-07-15 03:00:00 16.9 7 Nordeste 22 Nordeste 0 -- -- 70
2019-07-15 02:00:00 18 10 Este 21 Este 0 -- -- 65
2019-07-15 01:00:00 18.9 8 Nordeste 30 Este 0 -- -- 67
2019-07-15 00:00:00 20.3 21 Este 41 Este 0 -- -- 62
2019-07-14 23:00:00 22.9 26 Este 40 Este 0 -- -- 56
2019-07-14 22:00:00 25.3 6 Sudeste 12 Sudeste 0 -- -- 41
2019-07-14 21:00:00 27.4 7 Sudeste 15 Sur 0 -- -- 35
2019-07-14 20:00:00 28.8 5 Este 12 Nordeste 0 -- -- 33
2019-07-14 19:00:00 29 7 Nordeste 21 Nordeste 0 -- -- 33
2019-07-14 18:00:00 28.8 6 Este 18 Este 0 -- -- 33
2019-07-14 17:00:00 28.7 10 Nordeste 20 Nordeste 0 -- -- 34
2019-07-14 16:00:00 27.8 6 Norte 21 Nordeste 0 -- -- 38
2019-07-14 15:00:00 27 10 Nordeste 21 Nordeste 0 -- -- 42
2019-07-14 14:00:00 25.8 12 Este 22 Este 0 -- -- 49
2019-07-14 13:00:00 24.4 12 Este 21 Sudeste 0 -- -- 53
2019-07-14 12:00:00 22.9 13 Este 24 Sudeste 0 -- -- 61
2019-07-14 11:00:00 21.3 13 Este 31 Este 0 -- -- 67
2019-07-14 10:00:00 19.3 17 Este 28 Este 0 -- -- 74
2019-07-14 09:00:00 17.9 13 Nordeste 25 Este 0 -- -- 79
2019-07-14 08:00:00 16.1 4 Este 10 Este 0 -- -- 89
2019-07-14 07:00:00 15 0 Calma 9 Nordeste 0 -- -- 90
2019-07-14 06:00:00 15.4 0 Calma 9 Norte 0 -- -- 88
2019-07-14 05:00:00 15.9 5 Nordeste 9 Nordeste 0 -- -- 89
2019-07-14 04:00:00 15.9 6 Nordeste 9 Nordeste 0 -- -- 90
2019-07-14 03:00:00 16.5 3 Nordeste 6 Sur 0 -- -- 85
2019-07-14 02:00:00 17.4 3 Nordeste 8 Este 0 -- -- 85
2019-07-14 01:00:00 17.3 4 Nordeste 6 Nordeste 0 -- -- 86
2019-07-14 00:00:00 17.6 5 Oeste 10 Oeste 0 -- -- 83
2019-07-13 23:00:00 19.2 5 Este 15 Norte 0 -- -- 75
2019-07-13 22:00:00 20.7 4 Nordeste 15 Norte 0 -- -- 72
2019-07-13 21:00:00 22.1 5 Norte 15 Norte 0 -- -- 70
2019-07-13 20:00:00 22.2 9 Norte 18 Norte 0 -- -- 72
2019-07-13 19:00:00 20.6 14 Oeste 23 Este 0 -- -- 80
2019-07-13 18:00:00 19.7 9 Nordeste 17 Nordeste 5 -- -- 84
2019-07-13 17:00:00 20.1 7 Noroeste 29 Oeste 4.6 -- -- 80
2019-07-13 16:00:00 22.7 12 Nordeste 56 Oeste 0 -- -- 56
2019-07-13 15:00:00 31.4 9 Sudeste 21 Este 0 -- -- 29
2019-07-13 14:00:00 32.7 7 Oeste 15 Nordeste 0 -- -- 29
2019-07-13 13:00:00 30.5 9 Nordeste 22 Este 0 -- -- 31
2019-07-13 12:00:00 27 9 Este 23 Nordeste 0 -- -- 36
2019-07-13 11:00:00 23.4 13 Este 24 Nordeste 0 -- -- 41
2019-07-13 10:00:00 20.6 11 Nordeste 22 Nordeste 0 -- -- 47
2019-07-13 09:00:00 19.6 6 Nordeste 21 Norte 0 -- -- 50
2019-07-13 08:00:00 18.5 7 Norte 16 Nordeste 0 -- -- 53
2019-07-13 07:00:00 18.4 6 Norte 18 Nordeste 0 -- -- 54
2019-07-13 06:00:00 19.1 6 Nordeste 17 Norte 0 -- -- 59
2019-07-13 05:00:00 19.4 6 Nordeste 16 Nordeste 0 -- -- 64
2019-07-13 04:00:00 20.2 8 Nordeste 23 Nordeste 0 -- -- 61
2019-07-13 03:00:00 21.5 6 Nordeste 24 Nordeste 0 -- -- 58
2019-07-13 02:00:00 23.2 9 Nordeste 24 Nordeste 0 -- -- 54
2019-07-13 01:00:00 25.1 9 Nordeste 19 Nordeste 0 -- -- 51
2019-07-13 00:00:00 26.2 0 Calma 6 Este 0 -- -- 44
2019-07-12 23:00:00 29.8 4 Este 18 Norte 0 -- -- 34
2019-07-12 22:00:00 31.1 5 Nordeste 14 Norte 0 -- -- 31
2019-07-12 21:00:00 33.5 3 Oeste 7 Oeste 0 -- -- 29
2019-07-12 20:00:00 36 4 Sudoeste 16 Oeste 0 -- -- 22
2019-07-12 19:00:00 36.8 8 Sudoeste 20 Oeste 0 -- -- 20
2019-07-12 18:00:00 36 7 Noroeste 21 Oeste 0 -- -- 22
2019-07-12 17:00:00 36.8 6 Noroeste 19 Noroeste 0 -- -- 21
2019-07-12 16:00:00 36.5 9 Noroeste 23 Noroeste 0 -- -- 22
2019-07-12 15:00:00 36.2 10 Oeste 28 Oeste 0 -- -- 24
2019-07-12 14:00:00 34.3 6 Sudoeste 17 Noroeste 0 -- -- 25
2019-07-12 13:00:00 32 6 Norte 13 Nordeste 0 -- -- 29
2019-07-12 12:00:00 29.3 6 Norte 13 Norte 0 -- -- 33
2019-07-12 11:00:00 26.8 8 Nordeste 15 Nordeste 0 -- -- 39
2019-07-12 10:00:00 23.8 7 Nordeste 15 Nordeste 0 -- -- 45
2019-07-12 09:00:00 20.6 9 Nordeste 17 Nordeste 0 -- -- 53
2019-07-12 08:00:00 17.6 10 Nordeste 15 Nordeste 0 -- -- 63
2019-07-12 07:00:00 16.4 8 Nordeste 15 Nordeste 0 -- -- 66
2019-07-12 06:00:00 16.1 7 Este 13 Este 0 -- -- 69
2019-07-12 05:00:00 17.5 9 Nordeste 17 Nordeste 0 -- -- 64
2019-07-12 04:00:00 18.7 10 Nordeste 16 Nordeste 0 -- -- 60
2019-07-12 03:00:00 18.8 8 Este 18 Este 0 -- -- 61
2019-07-12 02:00:00 20.2 10 Nordeste 22 Nordeste 0 -- -- 59
2019-07-12 01:00:00 20.3 6 Nordeste 19 Nordeste 0 -- -- 58
2019-07-12 00:00:00 20.6 4 Este 5 Este 0 -- -- 56
2019-07-11 23:00:00 23.2 0 Calma 6 Sur 0 -- -- 45
2019-07-11 22:00:00 28.5 5 Nordeste 10 Nordeste 0 -- -- 33
2019-07-11 21:00:00 31.7 7 Nordeste 17 Nordeste 0 -- -- 28
2019-07-11 20:00:00 33.6 5 Nordeste 20 Noroeste 0 -- -- 24
2019-07-11 19:00:00 33.9 7 Norte 24 Oeste 0 -- -- 23
2019-07-11 18:00:00 34.1 4 Este 21 Noroeste 0 -- -- 22
2019-07-11 17:00:00 34.2 9 Noroeste 21 Norte 0 -- -- 23
2019-07-11 16:00:00 33.3 6 Oeste 21 Norte 0 -- -- 24
2019-07-11 15:00:00 32.1 8 Noroeste 16 Noroeste 0 -- -- 25
2019-07-11 14:00:00 31.6 9 Oeste 17 Oeste 0 -- -- 26
2019-07-11 13:00:00 29.5 5 Norte 11 Noroeste 0 -- -- 30
2019-07-11 12:00:00 27.6 5 Nordeste 12 Noroeste 0 -- -- 40
2019-07-11 11:00:00 24.9 6 Norte 12 Norte 0 -- -- 48
2019-07-11 10:00:00 21.7 5 Nordeste 9 Nordeste 0 -- -- 55
2019-07-11 09:00:00 18.2 2 Nordeste 13 Nordeste 0 -- -- 68
2019-07-11 08:00:00 14.5 6 Este 9 Nordeste 0 -- -- 81
2019-07-11 07:00:00 13 5 Nordeste 10 Nordeste 0 -- -- 84
2019-07-11 06:00:00 13.6 4 Este 14 Nordeste 0 -- -- 82
2019-07-11 05:00:00 14.2 7 Nordeste 11 Nordeste 0 -- -- 80
2019-07-11 04:00:00 15.3 6 Nordeste 12 Nordeste 0 -- -- 75
2019-07-11 03:00:00 15.9 5 Este 10 Nordeste 0 -- -- 72
2019-07-11 02:00:00 17.6 4 Este 11 Nordeste 0 -- -- 64
2019-07-11 01:00:00 19.7 8 Nordeste 13 Nordeste 0 -- -- 56
2019-07-11 00:00:00 20.5 4 Nordeste 10 Nordeste 0 -- -- 54
2019-07-10 23:00:00 21.1 6 Este 12 Este 0 -- -- 51
2019-07-10 22:00:00 25.9 0 Calma 9 Este 0 -- -- 41
2019-07-10 21:00:00 29 6 Nordeste 14 Nordeste 0 -- -- 30
2019-07-10 20:00:00 30 6 Nordeste 17 Norte 0 -- -- 29
2019-07-10 19:00:00 29.9 8 Nordeste 19 Norte 0 -- -- 29
2019-07-10 18:00:00 30.3 9 Norte 20 Norte 0 -- -- 30
2019-07-10 17:00:00 29.8 8 Nordeste 22 Norte 0 -- -- 33
2019-07-10 16:00:00 28.7 9 Este 20 Nordeste 0 -- -- 32
2019-07-10 15:00:00 28 7 Nordeste 19 Este 0 -- -- 33
2019-07-10 14:00:00 26.3 8 Nordeste 19 Este 0 -- -- 35
2019-07-10 13:00:00 24.2 10 Este 23 Este 0 -- -- 39
2019-07-10 12:00:00 22.5 10 Este 22 Este 0 -- -- 44
2019-07-10 11:00:00 20.1 11 Nordeste 25 Nordeste 0 -- -- 46
2019-07-10 10:00:00 17.3 13 Nordeste 22 Nordeste 0 -- -- 53
2019-07-10 09:00:00 14.4 9 Nordeste 13 Nordeste 0 -- -- 71
2019-07-10 08:00:00 12.1 3 Este 12 Nordeste 0 -- -- 82
2019-07-10 07:00:00 10.6 5 Nordeste 12 Nordeste 0 -- -- 85
2019-07-10 06:00:00 11.5 4 Nordeste 10 Nordeste 0 -- -- 80
2019-07-10 05:00:00 12.3 4 Este 15 Nordeste 0 -- -- 77
2019-07-10 04:00:00 13 6 Nordeste 15 Este 0 -- -- 75
2019-07-10 03:00:00 15 8 Nordeste 27 Este 0 -- -- 67
2019-07-10 02:00:00 16 8 Este 21 Este 0 -- -- 64
2019-07-10 01:00:00 17.3 9 Este 25 Este 0 -- -- 59
2019-07-10 00:00:00 18.6 12 Este 30 Este 0 -- -- 54
2019-07-09 23:00:00 20 14 Sudeste 28 Sudeste 0 -- -- 49
2019-07-09 22:00:00 21.2 17 Este 31 Este 0 -- -- 51
2019-07-09 21:00:00 23.1 17 Este 28 Este 0 -- -- 48
2019-07-09 20:00:00 25 13 Este 23 Este 0 -- -- 44
2019-07-09 19:00:00 26.3 9 Nordeste 23 Nordeste 0 -- -- 39
2019-07-09 18:00:00 25.3 10 Este 24 Este 0 -- -- 42
2019-07-09 17:00:00 25.8 13 Este 27 Este 0 -- -- 40
2019-07-09 16:00:00 25.2 12 Este 28 Este 0 -- -- 44
2019-07-09 15:00:00 24.2 8 Nordeste 19 Este 0 -- -- 52
2019-07-09 14:00:00 21.8 10 Este 17 Este 0 -- -- 58
2019-07-09 13:00:00 20.2 6 Nordeste 12 Este 0 -- -- 67
2019-07-09 12:00:00 18.7 6 Nordeste 15 Este 0 -- -- 71
2019-07-09 11:00:00 17.1 2 Este 10 Este 0 -- -- 81
2019-07-09 10:00:00 16.2 5 Este 9 Este 0 -- -- 86
2019-07-09 09:00:00 15.9 3 Este 7 Norte 0 -- -- 89
2019-07-09 08:00:00 15.4 4 Nordeste 8 Nordeste 0 -- -- 90
2019-07-09 07:00:00 15.2 2 Nordeste 6 Nordeste 0 -- -- 89
2019-07-09 06:00:00 15.3 4 Nordeste 10 Norte 0 -- -- 89
2019-07-09 05:00:00 14.8 5 Nordeste 12 Nordeste 0 -- -- 89
2019-07-09 04:00:00 15 6 Nordeste 10 Nordeste 0 -- -- 87
2019-07-09 03:00:00 15 4 Nordeste 9 Nordeste 0 -- -- 88
2019-07-09 02:00:00 14.9 4 Este 10 Este 0 -- -- 85
2019-07-09 01:00:00 14.6 5 Este 19 Norte 0 -- -- 85
2019-07-09 00:00:00 15.7 9 Nordeste 21 Norte 0 -- -- 81
2019-07-08 23:00:00 16.4 5 Nordeste 14 Norte 0 -- -- 76
2019-07-08 22:00:00 16.7 5 Este 26 Este 0 -- -- 73
2019-07-08 21:00:00 16.6 11 Nordeste 30 Noroeste 0.2 -- -- 71
2019-07-08 20:00:00 16 17 Noroeste 39 Nordeste 0.4 -- -- 73
2019-07-08 19:00:00 16.1 9 Este 58 Este 5.6 -- -- 74
2019-07-08 18:00:00 16.1 30 Este 55 Oeste 5.8 -- -- 79
2019-07-08 17:00:00 27.6 9 Norte 19 Noroeste 0 -- -- 37
2019-07-08 16:00:00 28.2 5 Nordeste 38 Sur 0 -- -- 32
2019-07-08 15:00:00 28.8 7 Este 21 Sur 0 -- -- 34
2019-07-08 14:00:00 27.7 8 Nordeste 22 Este 0 -- -- 40
2019-07-08 13:00:00 25.7 12 Sudeste 42 Nordeste 0 -- -- 50
2019-07-08 12:00:00 22.4 19 Este 37 Este 0 -- -- 60
2019-07-08 11:00:00 20.6 17 Este 34 Este 0 -- -- 66
2019-07-08 10:00:00 18.9 18 Este 39 Este 0 -- -- 72
2019-07-08 09:00:00 18.3 24 Este 39 Este 0 -- -- 73
2019-07-08 08:00:00 16.4 19 Este 33 Este 0 -- -- 78
2019-07-08 07:00:00 15 5 Este 18 Nordeste 0 -- -- 82
2019-07-08 06:00:00 15.1 8 Nordeste 20 Este 0 -- -- 81
2019-07-08 05:00:00 15.4 12 Este 26 Este 0 -- -- 79
2019-07-08 04:00:00 15.9 13 Este 35 Este 0 -- -- 79
2019-07-08 03:00:00 16 8 Este 18 Este 0 -- -- 77
2019-07-08 02:00:00 17.2 8 Este 23 Este 0 -- -- 73
2019-07-08 01:00:00 18.5 13 Este 37 Este 0 -- -- 68
2019-07-08 00:00:00 21.4 17 Este 30 Este 0 -- -- 61
2019-07-07 23:00:00 22.3 9 Nordeste 14 Nordeste 0 -- -- 33
2019-07-07 22:00:00 26.2 6 Norte 10 Norte 0 -- -- 28
2019-07-07 21:00:00 29.3 7 Norte 15 Norte 0 -- -- 21
2019-07-07 20:00:00 30.5 11 Noroeste 20 Noroeste 0 -- -- 19
2019-07-07 19:00:00 32 8 Oeste 25 Oeste 0 -- -- 19
2019-07-07 18:00:00 31.8 8 Noroeste 26 Oeste 0 -- -- 17
2019-07-07 17:00:00 31.3 10 Oeste 22 Oeste 0 -- -- 19
2019-07-07 16:00:00 30.3 8 Noroeste 25 Sudoeste 0 -- -- 21
2019-07-07 15:00:00 29.7 12 Sudoeste 24 Sudoeste 0 -- -- 20
2019-07-07 14:00:00 28.4 10 Sur 21 Sudoeste 0 -- -- 22
2019-07-07 13:00:00 26.7 6 Sudoeste 21 Sudoeste 0 -- -- 35
2019-07-07 12:00:00 25 5 Sur 17 Noroeste 0 -- -- 45
2019-07-07 11:00:00 23.1 4 Sudoeste 14 Sudoeste 0 -- -- 53
2019-07-07 10:00:00 20.1 6 Este 14 Sudeste 0 -- -- 65
2019-07-07 09:00:00 18 5 Este 9 Este 0 -- -- 76
2019-07-07 08:00:00 14.6 5 Nordeste 9 Nordeste 0 -- -- 87
2019-07-07 07:00:00 13 0 Calma 14 Este 0 -- -- 86
2019-07-07 06:00:00 14.9 9 Nordeste 23 Este 0 -- -- 85
2019-07-07 05:00:00 15.5 9 Nordeste 21 Nordeste 0 -- -- 84
2019-07-07 04:00:00 16.2 8 Nordeste 21 Nordeste 0 -- -- 82
2019-07-07 03:00:00 17.1 10 Nordeste 22 Nordeste 0 -- -- 80
2019-07-07 02:00:00 18.2 8 Nordeste 16 Nordeste 0 -- -- 73
2019-07-07 01:00:00 15.3 0 Calma 9 Nordeste 0 -- -- 69
2019-07-07 00:00:00 16.9 2 Noroeste 6 Norte 0 -- -- 61
2019-07-06 23:00:00 19.6 3 Sudoeste 6 Noroeste 0 -- -- 54
2019-07-06 22:00:00 24.8 6 Noroeste 19 Noroeste 0 -- -- 34
2019-07-06 21:00:00 28.4 12 Noroeste 23 Oeste 0 -- -- 26
2019-07-06 20:00:00 30.2 13 Oeste 24 Oeste 0 -- -- 23
2019-07-06 19:00:00 31.1 12 Oeste 36 Oeste 0 -- -- 20
2019-07-06 18:00:00 31.4 14 Oeste 35 Oeste 0 -- -- 25
2019-07-06 17:00:00 30.8 16 Noroeste 28 Oeste 0 -- -- 24
2019-07-06 16:00:00 29.4 16 Oeste 31 Oeste 0 -- -- 29
2019-07-06 15:00:00 29.8 19 Oeste 34 Sudoeste 0 -- -- 27
2019-07-06 14:00:00 28.1 10 Oeste 21 Oeste 0 -- -- 33
2019-07-06 13:00:00 27 6 Sur 18 Sudoeste 0 -- -- 35
2019-07-06 12:00:00 25.9 7 Sudoeste 17 Noroeste 0 -- -- 38
2019-07-06 11:00:00 24.4 9 Noroeste 17 Oeste 0 -- -- 44
2019-07-06 10:00:00 21.2 4 Oeste 12 Oeste 0 -- -- 68
2019-07-06 09:00:00 18.5 5 Oeste 8 Sudoeste 0 -- -- 77
2019-07-06 08:00:00 14.4 2 Oeste 5 Noroeste 0 -- -- 89
2019-07-06 07:00:00 11.2 2 Noroeste 3 Noroeste 0 -- -- 86
2019-07-06 06:00:00 11.6 0 Calma 4 Sur 0 -- -- 84
2019-07-06 05:00:00 12.2 0 Calma 4 Sur 0 -- -- 82
2019-07-06 04:00:00 12.9 0 Calma 9 Oeste 0 -- -- 80
2019-07-06 03:00:00 13.9 2 Noroeste 9 Oeste 0 -- -- 75
2019-07-06 02:00:00 14.9 0 Calma 5 Sur 0 -- -- 72
2019-07-06 01:00:00 16.2 0 Calma 5 Sur 0 -- -- 67
2019-07-06 00:00:00 18.2 0 Calma 7 Oeste 0 -- -- 59
2019-07-05 23:00:00 20.6 5 Sudoeste 9 Sudoeste 0 -- -- 50
2019-07-05 22:00:00 24.3 7 Sudoeste 21 Oeste 0 -- -- 37
2019-07-05 21:00:00 28.6 14 Oeste 24 Oeste 0 -- -- 23
2019-07-05 20:00:00 30.7 6 Oeste 26 Oeste 0 -- -- 24
2019-07-05 19:00:00 31.3 5 Oeste 29 Oeste 0 -- -- 21
2019-07-05 18:00:00 31.2 12 Oeste 29 Oeste 0 -- -- 23
2019-07-05 17:00:00 30.4 13 Oeste 28 Oeste 0 -- -- 24
2019-07-05 16:00:00 29.7 12 Oeste 22 Sudoeste 0 -- -- 27
2019-07-05 15:00:00 29.4 10 Noroeste 23 Noroeste 0 -- -- 29
2019-07-05 14:00:00 28.3 10 Oeste 24 Oeste 0 -- -- 34
2019-07-05 13:00:00 27.1 12 Oeste 22 Oeste 0 -- -- 39
2019-07-05 12:00:00 25.7 11 Oeste 19 Oeste 0 -- -- 44
2019-07-05 11:00:00 23.3 9 Oeste 19 Oeste 0 -- -- 53
2019-07-05 10:00:00 21.2 7 Sudoeste 10 Sudoeste 0 -- -- 67
2019-07-05 09:00:00 18.8 6 Sur 10 Sur 0 -- -- 80
2019-07-05 08:00:00 14.6 3 Sudeste 8 Sur 0 -- -- 92
2019-07-05 07:00:00 13 0 Calma 3 Noroeste 0 -- -- 89
2019-07-05 06:00:00 13.5 0 Calma 7 Sur 0 -- -- 88
2019-07-05 05:00:00 14.5 0 Calma 6 Noroeste 0 -- -- 88
2019-07-05 04:00:00 15.7 2 Este 10 Sudoeste 0 -- -- 85
2019-07-05 03:00:00 17.6 6 Oeste 16 Sudoeste 0 -- -- 74
2019-07-05 02:00:00 19 8 Nordeste 13 Nordeste 0 -- -- 69
2019-07-05 01:00:00 19.2 8 Nordeste 13 Nordeste 0 -- -- 69
2019-07-05 00:00:00 20 4 Este 14 Nordeste 0 -- -- 68
2019-07-04 23:00:00 21.2 6 Nordeste 14 Nordeste 0 -- -- 66
2019-07-04 22:00:00 22.7 0 Calma 12 Este 0 -- -- 65
2019-07-04 21:00:00 25.1 4 Este 10 Este 0 -- -- 54
2019-07-04 20:00:00 24.9 6 Nordeste 11 Nordeste 0 -- -- 60
2019-07-04 19:00:00 23 6 Nordeste 18 Nordeste 0 -- -- 72
2019-07-04 18:00:00 19.9 10 Norte 53 Oeste 10.2 -- -- 78
2019-07-04 17:00:00 26.5 7 Noroeste 25 Oeste 0 -- -- 44
2019-07-04 16:00:00 27.8 6 Sudoeste 19 Sur 0 -- -- 38
2019-07-04 15:00:00 28.2 3 Este 12 Sur 0 -- -- 39
2019-07-04 14:00:00 26.3 8 Sudoeste 17 Sur 0 -- -- 39
2019-07-04 13:00:00 22.1 8 Sur 30 Sudeste 0.2 -- -- 65
2019-07-04 12:00:00 20.3 4 Sudoeste 14 Sudeste 0 -- -- 74
2019-07-04 11:00:00 20.6 2 Sur 15 Sudeste 2 -- -- 76
2019-07-04 10:00:00 20.4 5 Sudeste 16 Sudeste 0 -- -- 62
2019-07-04 09:00:00 17.4 3 Nordeste 10 Nordeste 0 -- -- 77
2019-07-04 08:00:00 15.9 5 Nordeste 8 Este 0 -- -- 80
2019-07-04 07:00:00 15.3 3 Este 14 Nordeste 0 -- -- 81
2019-07-04 06:00:00 16.2 8 Nordeste 15 Nordeste 0 -- -- 78
2019-07-04 05:00:00 16.8 9 Nordeste 28 Nordeste 0 -- -- 74
2019-07-04 04:00:00 17.6 15 Nordeste 35 Nordeste 0 -- -- 68
2019-07-04 03:00:00 17.7 13 Nordeste 40 Este 0 -- -- 65
2019-07-04 02:00:00 19.6 22 Este 39 Este 0 -- -- 58
2019-07-04 01:00:00 18.4 10 Nordeste 21 Nordeste 0 -- -- 69
2019-07-04 00:00:00 20.1 7 Nordeste 35 Este 0 -- -- 64
2019-07-03 23:00:00 21.1 19 Este 41 Este 0 -- -- 56
2019-07-03 22:00:00 21.2 18 Este 33 Este 0 -- -- 58
2019-07-03 21:00:00 22.1 11 Nordeste 26 Nordeste 0 -- -- 58
2019-07-03 20:00:00 23.3 7 Nordeste 27 Este 0 -- -- 53
2019-07-03 19:00:00 23.9 16 Este 34 Este 0 -- -- 46
2019-07-03 18:00:00 23.4 8 Nordeste 30 Noroeste 0 -- -- 55
2019-07-03 17:00:00 25.4 26 Oeste 46 Oeste 0.4 -- -- 47
2019-07-03 16:00:00 33 10 Noroeste 21 Nordeste 0 -- -- 27
2019-07-03 15:00:00 32.3 5 Noroeste 17 Norte 0 -- -- 27
2019-07-03 14:00:00 31.7 10 Oeste 21 Oeste 0 -- -- 30
2019-07-03 13:00:00 29.7 5 Sudeste 14 Norte 0 -- -- 34
2019-07-03 12:00:00 27.9 7 Norte 14 Norte 0 -- -- 39
2019-07-03 11:00:00 24.9 6 Nordeste 12 Nordeste 0 -- -- 48
2019-07-03 10:00:00 21.9 6 Este 13 Nordeste 0 -- -- 61
2019-07-03 09:00:00 18.8 9 Nordeste 18 Este 0 -- -- 74
2019-07-03 08:00:00 16.3 10 Nordeste 16 Este 0 -- -- 84
2019-07-03 07:00:00 15.2 9 Nordeste 18 Nordeste 0 -- -- 87
2019-07-03 06:00:00 15.5 7 Este 22 Este 0 -- -- 86
2019-07-03 05:00:00 15.8 11 Este 30 Nordeste 0 -- -- 84
2019-07-03 04:00:00 16.2 11 Este 22 Este 0 -- -- 82
2019-07-03 03:00:00 16.6 5 Nordeste 20 Este 0 -- -- 79
2019-07-03 02:00:00 17.2 7 Este 27 Este 0 -- -- 77
2019-07-03 01:00:00 18.1 6 Este 26 Este 0 -- -- 73
2019-07-03 00:00:00 19.8 14 Nordeste 40 Este 0 -- -- 67
2019-07-02 23:00:00 22.6 17 Este 38 Este 0 -- -- 59
2019-07-02 22:00:00 26.2 17 Este 36 Este 0 -- -- 47
2019-07-02 21:00:00 28.6 22 Este 39 Este 0 -- -- 40
2019-07-02 20:00:00 32.8 9 Oeste 19 Sur 0 -- -- 21
2019-07-02 19:00:00 32.5 12 Sudeste 24 Sudeste 0 -- -- 22
2019-07-02 18:00:00 33.5 10 Sudoeste 22 Oeste 0 -- -- 20
2019-07-02 17:00:00 32.2 9 Oeste 27 Sudeste 0 -- -- 29
2019-07-02 16:00:00 31.3 9 Nordeste 22 Este 0 -- -- 32
2019-07-02 15:00:00 29.4 7 Este 22 Este 0 -- -- 36
2019-07-02 14:00:00 27.8 13 Este 27 Este 0 -- -- 40
2019-07-02 13:00:00 25.7 13 Este 27 Este 0 -- -- 46
2019-07-02 12:00:00 23.6 13 Este 30 Este 0 -- -- 51
2019-07-02 11:00:00 21.3 14 Este 30 Este 0 -- -- 57
2019-07-02 10:00:00 18.9 18 Este 33 Nordeste 0 -- -- 65
2019-07-02 09:00:00 16.8 20 Este 35 Este 0 -- -- 73
2019-07-02 08:00:00 15.2 17 Este 35 Este 0 -- -- 80
2019-07-02 07:00:00 14.1 14 Este 33 Este 0 -- -- 84
2019-07-02 06:00:00 13.9 15 Este 40 Nordeste 0 -- -- 84
2019-07-02 05:00:00 14 19 Nordeste 33 Nordeste 0 -- -- 84
2019-07-02 04:00:00 14.2 18 Nordeste 35 Nordeste 0 -- -- 81
2019-07-02 03:00:00 14.6 19 Este 37 Nordeste 0 -- -- 78
2019-07-02 02:00:00 15.1 17 Este 29 Nordeste 0 -- -- 75
2019-07-02 01:00:00 15.5 15 Nordeste 30 Nordeste 0 -- -- 74
2019-07-02 00:00:00 16.1 14 Nordeste 42 Este 0 -- -- 74
2019-07-01 23:00:00 17.2 20 Este 40 Este 0 -- -- 71
2019-07-01 22:00:00 18.7 14 Nordeste 44 Este 0 -- -- 66
2019-07-01 21:00:00 20.4 21 Este 46 Este 0 -- -- 61
2019-07-01 20:00:00 22.8 22 Este 41 Este 0 -- -- 53
2019-07-01 19:00:00 23.6 14 Este 33 Este 0 -- -- 51
2019-07-01 18:00:00 26.7 19 Este 37 Este 0 -- -- 43
2019-07-01 17:00:00 30.1 18 Este 33 Este 0 -- -- 37
2019-07-01 16:00:00 29.9 17 Nordeste 29 Este 0 -- -- 39
2019-07-01 15:00:00 29.2 13 Este 30 Nordeste 0 -- -- 41
2019-07-01 14:00:00 27.4 16 Nordeste 33 Este 0 -- -- 45
2019-07-01 13:00:00 26.2 13 Nordeste 27 Este 0 -- -- 49
2019-07-01 12:00:00 24 14 Este 29 Este 0 -- -- 54
2019-07-01 11:00:00 21.5 18 Nordeste 30 Este 0 -- -- 61
2019-07-01 10:00:00 19.8 15 Este 29 Este 0 -- -- 67
2019-07-01 09:00:00 17.7 16 Este 29 Este 0 -- -- 73
2019-07-01 08:00:00 16 12 Nordeste 21 Este 0 -- -- 79
2019-07-01 07:00:00 15.2 10 Este 19 Nordeste 0 -- -- 81
2019-07-01 06:00:00 16 9 Nordeste 16 Este 0 -- -- 78
2019-07-01 05:00:00 16.6 9 Nordeste 18 Nordeste 0 -- -- 79
2019-07-01 04:00:00 16.9 12 Nordeste 19 Nordeste 0 -- -- 76
2019-07-01 03:00:00 19.5 6 Nordeste 17 Este 0 -- -- 70
2019-07-01 02:00:00 19.2 3 Oeste 5 Este 0 -- -- 63
2019-07-01 01:00:00 20.4 4 Sudoeste 9 Noroeste 0 -- -- 59
2019-07-01 00:00:00 22.2 0 Calma 8 Sudoeste 0 -- -- 48
2019-06-30 23:00:00 24.9 4 Sudoeste 15 Noroeste 0 -- -- 42
2019-06-30 22:00:00 28.5 10 Noroeste 21 Noroeste 0 -- -- 34
2019-06-30 21:00:00 31.6 15 Oeste 32 Oeste 0 -- -- 25
2019-06-30 20:00:00 34.3 18 Oeste 33 Oeste 0 -- -- 22
2019-06-30 19:00:00 36.2 19 Oeste 33 Oeste 0 -- -- 20
2019-06-30 18:00:00 36 15 Oeste 30 Oeste 0 -- -- 25
2019-06-30 17:00:00 35.4 9 Noroeste 31 Sudoeste 0 -- -- 29
2019-06-30 16:00:00 34.7 14 Oeste 35 Oeste 0 -- -- 30
2019-06-30 15:00:00 34.3 17 Oeste 30 Oeste 0 -- -- 30
2019-06-30 14:00:00 33.3 14 Oeste 24 Oeste 0 -- -- 35
2019-06-30 13:00:00 32.1 12 Oeste 28 Oeste 0 -- -- 38
2019-06-30 12:00:00 30.7 13 Oeste 19 Oeste 0 -- -- 41
2019-06-30 11:00:00 27.5 5 Sudoeste 12 Sudoeste 0 -- -- 46
2019-06-30 10:00:00 23.5 4 Este 9 Este 0 -- -- 55
2019-06-30 09:00:00 20.1 7 Este 16 Nordeste 0 -- -- 63
2019-06-30 08:00:00 17.5 10 Nordeste 24 Este 0 -- -- 72
2019-06-30 07:00:00 16.6 9 Nordeste 19 Nordeste 0 -- -- 76
2019-06-30 06:00:00 17.2 13 Nordeste 20 Este 0 -- -- 75
2019-06-30 05:00:00 18.1 10 Nordeste 26 Nordeste 0 -- -- 72
2019-06-30 04:00:00 19.2 12 Este 21 Este 0 -- -- 68
2019-06-30 03:00:00 20.7 10 Nordeste 20 Nordeste 0 -- -- 62
2019-06-30 02:00:00 22.7 6 Nordeste 22 Este 0 -- -- 55
2019-06-30 01:00:00 24.3 9 Este 22 Este 0 -- -- 51
2019-06-30 00:00:00 24.9 4 Nordeste 12 Nordeste 0 -- -- 47
2019-06-29 23:00:00 26.3 5 Oeste 13 Norte 0 -- -- 44
2019-06-29 22:00:00 31 4 Norte 14 Norte 0 -- -- 34
2019-06-29 21:00:00 34.5 9 Norte 18 Norte 0 -- -- 24
2019-06-29 20:00:00 37.2 6 Norte 14 Norte 0 -- -- 23
2019-06-29 19:00:00 37 10 Noroeste 21 Oeste 0 -- -- 23
2019-06-29 18:00:00 38 10 Noroeste 21 Noroeste 0 -- -- 21
2019-06-29 17:00:00 37 4 Sudeste 24 Oeste 0 -- -- 23
2019-06-29 16:00:00 36.9 10 Oeste 25 Oeste 0 -- -- 24
2019-06-29 15:00:00 36.1 10 Oeste 27 Oeste 0 -- -- 26
2019-06-29 14:00:00 35.1 8 Sudoeste 28 Oeste 0 -- -- 28
2019-06-29 13:00:00 33.5 11 Oeste 22 Oeste 0 -- -- 34
2019-06-29 12:00:00 31.6 4 Oeste 13 Oeste 0 -- -- 40
2019-06-29 11:00:00 29 5 Oeste 10 Oeste 0 -- -- 49
2019-06-29 10:00:00 25.4 6 Oeste 13 Oeste 0 -- -- 60
2019-06-29 09:00:00 23 7 Sudoeste 9 Sudoeste 0 -- -- 65
2019-06-29 08:00:00 19.4 4 Sur 8 Sudoeste 0 -- -- 67
2019-06-29 07:00:00 17.2 3 Sudeste 10 Oeste 0 -- -- 49
2019-06-29 06:00:00 19.4 8 Sur 12 Sur 0 -- -- 41
2019-06-29 05:00:00 21.8 3 Sudeste 9 Sudeste 0 -- -- 32
2019-06-29 04:00:00 23.7 5 Sudeste 23 Sur 0 -- -- 29
2019-06-29 03:00:00 26.4 17 Sur 27 Sur 0 -- -- 26
2019-06-29 02:00:00 24.5 10 Sudeste 19 Sudeste 0 -- -- 36
2019-06-29 01:00:00 21.2 0 Calma 3 Noroeste 0 -- -- 51
2019-06-29 00:00:00 23.1 0 Calma 4 Noroeste 0 -- -- 44
2019-06-28 23:00:00 26.4 0 Calma 15 Sudoeste 0 -- -- 34
2019-06-28 22:00:00 32.2 9 Sur 16 Sur 0 -- -- 21
2019-06-28 21:00:00 35.7 8 Sur 26 Sudoeste 0 -- -- 20
2019-06-28 20:00:00 37.4 18 Sudoeste 39 Sur 0 -- -- 18
2019-06-28 19:00:00 38.4 21 Sur 39 Sur 0 -- -- 16
2019-06-28 18:00:00 39.1 20 Sur 38 Sur 0 -- -- 15
2019-06-28 17:00:00 39.3 18 Sudoeste 37 Sur 0 -- -- 15
2019-06-28 16:00:00 37.7 12 Sudeste 24 Sudeste 0 -- -- 21
2019-06-28 15:00:00 36.3 11 Sur 24 Sur 0 -- -- 23
2019-06-28 14:00:00 35.7 10 Sudoeste 23 Oeste 0 -- -- 24
2019-06-28 13:00:00 32.7 6 Nordeste 17 Nordeste 0 -- -- 36
2019-06-28 12:00:00 30.1 5 Nordeste 18 Este 0 -- -- 42
2019-06-28 11:00:00 27.8 9 Este 19 Este 0 -- -- 47
2019-06-28 10:00:00 24.8 6 Este 12 Nordeste 0 -- -- 58
2019-06-28 09:00:00 22.1 5 Nordeste 9 Este 0 -- -- 68
2019-06-28 08:00:00 17.1 0 Calma 3 Noroeste 0 -- -- 83
2019-06-28 07:00:00 14.8 0 Calma 6 Noroeste 0 -- -- 83
2019-06-28 06:00:00 15.3 0 Calma 5 Oeste 0 -- -- 86
2019-06-28 05:00:00 15.7 2 Oeste 3 Oeste 0 -- -- 78
2019-06-28 04:00:00 16.6 2 Oeste 5 Sudeste 0 -- -- 78
2019-06-28 03:00:00 17.6 0 Calma 4 Este 0 -- -- 77
2019-06-28 02:00:00 18.6 0 Calma 6 Oeste 0 -- -- 72
2019-06-28 01:00:00 20.3 0 Calma 6 Este 0 -- -- 68
2019-06-28 00:00:00 21.7 6 Sudeste 13 Oeste 0 -- -- 65
2019-06-27 23:00:00 23.8 9 Oeste 22 Oeste 0 -- -- 58
2019-06-27 22:00:00 26.4 14 Oeste 30 Oeste 0 -- -- 51
2019-06-27 21:00:00 29.5 22 Oeste 40 Oeste 0 -- -- 43
2019-06-27 20:00:00 33.6 20 Oeste 34 Oeste 0 -- -- 32
2019-06-27 19:00:00 35 17 Oeste 31 Oeste 0 -- -- 29
2019-06-27 18:00:00 36.2 17 Oeste 41 Sur 0 -- -- 27
2019-06-27 17:00:00 36 22 Sudoeste 42 Sudoeste 0 -- -- 24
2019-06-27 16:00:00 35.7 23 Sur 54 Sudoeste 0 -- -- 23
2019-06-27 15:00:00 35.7 20 Sur 48 Sur 0 -- -- 23
2019-06-27 14:00:00 34.7 19 Sur 40 Sur 0 -- -- 24
2019-06-27 13:00:00 32.3 16 Sur 40 Sudoeste 0 -- -- 30
2019-06-27 12:00:00 30.2 10 Sur 22 Sur 0 -- -- 36
2019-06-27 11:00:00 28.7 11 Sur 23 Sur 0 -- -- 43
2019-06-27 10:00:00 26.8 8 Sur 19 Sudoeste 0 -- -- 49
2019-06-27 09:00:00 21.7 4 Nordeste 9 Nordeste 0 -- -- 66
2019-06-27 08:00:00 17.4 6 Nordeste 11 Nordeste 0 -- -- 78
2019-06-27 07:00:00 15.9 3 Nordeste 12 Nordeste 0 -- -- 80
2019-06-27 06:00:00 16 6 Nordeste 9 Nordeste 0 -- -- 82
2019-06-27 05:00:00 16.1 0 Calma 5 Oeste 0 -- -- 80
2019-06-27 04:00:00 17.2 0 Calma 10 Nordeste 0 -- -- 73
2019-06-27 03:00:00 16.9 0 Calma 5 Nordeste 0 -- -- 77
2019-06-27 02:00:00 17.6 0 Calma 6 Sur 0 -- -- 73
2019-06-27 01:00:00 19.2 0 Calma 7 Sur 0 -- -- 69
2019-06-27 00:00:00 22 3 Nordeste 10 Este 0 -- -- 58
2019-06-26 23:00:00 23.5 3 Sudeste 14 Norte 0 -- -- 56
2019-06-26 22:00:00 25.8 9 Noroeste 18 Noroeste 0 -- -- 47
2019-06-26 21:00:00 28.8 13 Noroeste 25 Norte 0 -- -- 40
2019-06-26 20:00:00 31.3 10 Noroeste 22 Noroeste 0 -- -- 35
2019-06-26 19:00:00 32.3 13 Oeste 33 Oeste 0 -- -- 33
2019-06-26 18:00:00 32.6 17 Oeste 32 Noroeste 0 -- -- 31
2019-06-26 17:00:00 32.4 17 Oeste 28 Oeste 0 -- -- 32
2019-06-26 16:00:00 32.7 15 Oeste 32 Oeste 0 -- -- 31
2019-06-26 15:00:00 31.9 14 Oeste 37 Sudoeste 0 -- -- 31
2019-06-26 14:00:00 31.1 17 Oeste 33 Sudoeste 0 -- -- 33
2019-06-26 13:00:00 29.4 12 Sudoeste 27 Oeste 0 -- -- 36
2019-06-26 12:00:00 28 13 Oeste 24 Oeste 0 -- -- 41
2019-06-26 11:00:00 26.7 17 Oeste 27 Oeste 0 -- -- 44
2019-06-26 10:00:00 25.4 12 Sudoeste 22 Sudoeste 0 -- -- 48
2019-06-26 09:00:00 21.6 6 Sudoeste 15 Sur 0 -- -- 64
2019-06-26 08:00:00 18.1 3 Este 9 Este 0 -- -- 81
2019-06-26 07:00:00 15.2 2 Norte 9 Este 0 -- -- 90
2019-06-26 06:00:00 15.5 2 Noroeste 12 Este 0 -- -- 85
2019-06-26 05:00:00 16.8 7 Este 14 Nordeste 0 -- -- 85
2019-06-26 04:00:00 16.5 6 Este 12 Este 0 -- -- 86
2019-06-26 03:00:00 16.4 0 Calma 10 Este 0 -- -- 82
2019-06-26 02:00:00 16.8 6 Nordeste 10 Nordeste 0 -- -- 84
2019-06-26 01:00:00 17.5 0 Calma 5 Nordeste 0 -- -- 76
2019-06-26 00:00:00 19 4 Nordeste 9 Nordeste 0 -- -- 75
2019-06-25 23:00:00 19.7 4 Nordeste 8 Este 0 -- -- 71
2019-06-25 22:00:00 21.8 2 Nordeste 11 Norte 0 -- -- 64
2019-06-25 21:00:00 23.1 5 Norte 15 Norte 0 -- -- 59
2019-06-25 20:00:00 23.7 9 Norte 22 Norte 0 -- -- 56
2019-06-25 19:00:00 25.3 15 Noroeste 24 Noroeste 0 -- -- 53
2019-06-25 18:00:00 25.9 10 Norte 24 Noroeste 0 -- -- 52
2019-06-25 17:00:00 25.5 13 Noroeste 24 Noroeste 0 -- -- 53
2019-06-25 16:00:00 25.8 11 Noroeste 27 Noroeste 0 -- -- 51
2019-06-25 15:00:00 25.3 17 Oeste 28 Oeste 0 -- -- 51
2019-06-25 14:00:00 24.2 8 Noroeste 18 Noroeste 0 -- -- 57
2019-06-25 13:00:00 23.2 5 Noroeste 13 Noroeste 0 -- -- 59
2019-06-25 12:00:00 20.6 6 Norte 21 Noroeste 0 -- -- 70
2019-06-25 11:00:00 19 8 Norte 17 Noroeste 0 -- -- 78
2019-06-25 10:00:00 17.5 5 Norte 10 Este 0 -- -- 83
2019-06-25 09:00:00 15.7 6 Nordeste 10 Este 0 -- -- 91
2019-06-25 08:00:00 14.4 5 Nordeste 9 Nordeste 0 -- -- 94
2019-06-25 07:00:00 14.2 4 Nordeste 7 Este 0 -- -- 93
2019-06-25 06:00:00 14 2 Este 6 Nordeste 0 -- -- 92
2019-06-25 05:00:00 14.5 3 Nordeste 9 Este 0 -- -- 92
2019-06-25 04:00:00 14.7 0 Calma 6 Noroeste 0.2 -- -- 91
2019-06-25 03:00:00 14.8 0 Calma 5 Noroeste 0 -- -- 90
2019-06-25 02:00:00 14.7 5 Noroeste 13 Oeste 0 -- -- 91
2019-06-25 01:00:00 15.4 6 Oeste 11 Sur 0 -- -- 89
2019-06-25 00:00:00 15.3 4 Sur 8 Sudeste 0 -- -- 88
2019-06-24 23:00:00 15.4 5 Oeste 9 Oeste 0.2 -- -- 87
2019-06-24 22:00:00 16 0 Calma 8 Noroeste 0.2 -- -- 84
2019-06-24 21:00:00 16.1 6 Noroeste 16 Oeste 0.2 -- -- 83
2019-06-24 20:00:00 17.5 12 Noroeste 32 Noroeste 0 -- -- 71
2019-06-24 19:00:00 19.2 17 Noroeste 31 Noroeste 0 -- -- 64
2019-06-24 18:00:00 21.3 19 Noroeste 31 Noroeste 0 -- -- 58
2019-06-24 17:00:00 22.5 20 Noroeste 35 Norte 0 -- -- 50
2019-06-24 16:00:00 22.8 17 Noroeste 33 Noroeste 0 -- -- 48
2019-06-24 15:00:00 23.8 17 Noroeste 39 Noroeste 0 -- -- 49
2019-06-24 14:00:00 24 15 Norte 27 Noroeste 0 -- -- 51
2019-06-24 13:00:00 23.5 6 Nordeste 22 Norte 0 -- -- 57
2019-06-24 12:00:00 22.4 8 Noroeste 15 Noroeste 0 -- -- 61
2019-06-24 11:00:00 20.7 3 Nordeste 8 Norte 0 -- -- 65
2019-06-24 10:00:00 18.4 5 Oeste 9 Sudoeste 0 -- -- 81
2019-06-24 09:00:00 17.1 3 Norte 7 Nordeste 0 -- -- 85
2019-06-24 08:00:00 15.7 0 Calma 6 Sur 0 -- -- 88
2019-06-24 07:00:00 14.9 0 Calma 5 Sur 0 -- -- 88
2019-06-24 06:00:00 14.7 4 Oeste 5 Oeste 0 -- -- 84
2019-06-24 05:00:00 15.2 0 Calma 8 Oeste 0 -- -- 83
2019-06-24 04:00:00 15.6 3 Este 9 Sudoeste 0 -- -- 83
2019-06-24 03:00:00 15.8 5 Sudeste 12 Este 0 -- -- 80
2019-06-24 02:00:00 15.9 3 Sudoeste 6 Sudoeste 0 -- -- 75
2019-06-24 01:00:00 17.5 3 Nordeste 8 Este 0 -- -- 69
2019-06-24 00:00:00 17 6 Oeste 14 Oeste 0 -- -- 57
2019-06-23 23:00:00 18.6 7 Sur 9 Sur 0 -- -- 51
2019-06-23 22:00:00 20.7 0 Calma 5 Sur 0 -- -- 52
2019-06-23 21:00:00 22.5 2 Sudeste 9 Noroeste 0 -- -- 39
2019-06-23 20:00:00 23.8 7 Noroeste 13 Noroeste 0 -- -- 32
2019-06-23 19:00:00 24.9 10 Noroeste 21 Noroeste 0 -- -- 28
2019-06-23 18:00:00 25.4 16 Oeste 25 Oeste 0 -- -- 27
2019-06-23 17:00:00 27.3 17 Oeste 31 Oeste 0 -- -- 24
2019-06-23 16:00:00 26.7 16 Oeste 30 Oeste 0 -- -- 25
2019-06-23 15:00:00 26.8 21 Oeste 40 Oeste 0 -- -- 26
2019-06-23 14:00:00 25.3 19 Sudoeste 41 Sudoeste 0 -- -- 29
2019-06-23 13:00:00 24.8 20 Sudoeste 38 Sudoeste 0 -- -- 28
2019-06-23 12:00:00 24.3 16 Sudoeste 30 Sur 0 -- -- 32
2019-06-23 11:00:00 23.5 13 Sur 24 Sudoeste 0 -- -- 32
2019-06-23 10:00:00 22.6 6 Sur 13 Sur 0 -- -- 39
2019-06-23 09:00:00 19 4 Sudoeste 9 Sudoeste 0 -- -- 49
2019-06-23 08:00:00 14 3 Sur 5 Sur 0 -- -- 70
2019-06-23 07:00:00 13.2 0 Calma 5 Sudoeste 0 -- -- 74
2019-06-23 06:00:00 13 2 Sudoeste 4 Oeste 0 -- -- 73
2019-06-23 05:00:00 13 3 Noroeste 6 Oeste 0 -- -- 74
2019-06-23 04:00:00 12.8 4 Oeste 6 Oeste 0 -- -- 74
2019-06-23 03:00:00 13.4 2 Oeste 4 Sur 0 -- -- 71
2019-06-23 02:00:00 14.5 0 Calma 3 Sudeste 0 -- -- 62
2019-06-23 01:00:00 15 0 Calma 5 Oeste 0 -- -- 56
2019-06-23 00:00:00 16.2 0 Calma 5 Sur 0 -- -- 57
2019-06-22 23:00:00 18.6 3 Sudoeste 6 Oeste 0 -- -- 53
2019-06-22 22:00:00 22.2 3 Sudoeste 17 Oeste 0 -- -- 44
2019-06-22 21:00:00 26.4 12 Oeste 27 Oeste 0 -- -- 31
2019-06-22 20:00:00 28.8 12 Oeste 30 Oeste 0 -- -- 27
2019-06-22 19:00:00 30 17 Oeste 30 Oeste 0 -- -- 23
2019-06-22 18:00:00 30 17 Oeste 35 Oeste 0 -- -- 25
2019-06-22 17:00:00 28.9 12 Sudoeste 36 Sur 0 -- -- 28
2019-06-22 16:00:00 28.9 15 Oeste 30 Oeste 0 -- -- 30
2019-06-22 15:00:00 27.9 14 Oeste 29 Oeste 0 -- -- 30
2019-06-22 14:00:00 27.1 14 Oeste 28 Noroeste 0 -- -- 31
2019-06-22 13:00:00 25 4 Noroeste 14 Noroeste 0 -- -- 37
2019-06-22 12:00:00 21.9 7 Norte 14 Norte 0 -- -- 50
2019-06-22 11:00:00 18.9 6 Nordeste 15 Nordeste 0 -- -- 59
2019-06-22 10:00:00 15.1 7 Nordeste 12 Nordeste 0 -- -- 72
2019-06-22 09:00:00 12.5 8 Nordeste 13 Nordeste 0 -- -- 82
2019-06-22 08:00:00 10.3 9 Nordeste 15 Nordeste 0 -- -- 88
2019-06-22 07:00:00 9.9 8 Nordeste 18 Nordeste 0 -- -- 89
2019-06-22 06:00:00 10 9 Nordeste 20 Nordeste 0 -- -- 88
2019-06-22 05:00:00 10.6 12 Nordeste 18 Nordeste 0 -- -- 86
2019-06-22 04:00:00 11.5 8 Nordeste 14 Nordeste 0 -- -- 81
2019-06-22 03:00:00 12.5 4 Nordeste 11 Nordeste 0 -- -- 76
2019-06-22 02:00:00 13.6 4 Nordeste 14 Este 0 -- -- 72
2019-06-22 01:00:00 14.8 6 Este 25 Sudeste 0 -- -- 68
2019-06-22 00:00:00 16.1 16 Sudeste 29 Sudeste 0 -- -- 62
2019-06-21 23:00:00 17.7 13 Este 24 Sudeste 0 -- -- 57
2019-06-21 22:00:00 19 8 Este 17 Este 0 -- -- 52
2019-06-21 21:00:00 21.7 6 Este 11 Este 0 -- -- 39
2019-06-21 20:00:00 22.9 4 Nordeste 17 Este 0 -- -- 35
2019-06-21 19:00:00 22.6 9 Este 20 Nordeste 0 -- -- 40
2019-06-21 18:00:00 23.3 6 Norte 17 Norte 0 -- -- 39
2019-06-21 17:00:00 23 10 Norte 25 Nordeste 0 -- -- 40
2019-06-21 16:00:00 21.9 10 Nordeste 22 Nordeste 0 -- -- 45
2019-06-21 15:00:00 21.4 7 Nordeste 22 Este 0 -- -- 47
2019-06-21 14:00:00 19.4 9 Este 22 Este 0 -- -- 52
2019-06-21 13:00:00 18.8 14 Este 27 Nordeste 0 -- -- 59
2019-06-21 12:00:00 18.1 13 Este 24 Este 0 -- -- 61
2019-06-21 11:00:00 16.9 13 Este 24 Este 0 -- -- 69
2019-06-21 10:00:00 15.1 9 Nordeste 16 Nordeste 0 -- -- 80
2019-06-21 09:00:00 13.2 7 Nordeste 13 Nordeste 0 -- -- 87
2019-06-21 08:00:00 11.6 3 Nordeste 7 Nordeste 0 -- -- 94
2019-06-21 07:00:00 10.4 4 Este 6 Nordeste 0 -- -- 94
2019-06-21 06:00:00 10.8 4 Nordeste 6 Nordeste 0 -- -- 93
2019-06-21 05:00:00 11.6 2 Nordeste 6 Nordeste 0 -- -- 93
2019-06-21 04:00:00 11.2 0 Calma 4 Nordeste 0 -- -- 92
2019-06-21 03:00:00 12 3 Nordeste 14 Nordeste 0 -- -- 91
2019-06-21 02:00:00 12.5 9 Nordeste 36 Este 0 -- -- 90
2019-06-21 01:00:00 13 18 Este 35 Este 0 -- -- 91
2019-06-21 00:00:00 13.1 17 Este 33 Este 1.6 -- -- 91
2019-06-20 23:00:00 13.5 18 Este 33 Nordeste 5.2 -- -- 91
2019-06-20 22:00:00 14.5 9 Norte 27 Norte 0 -- -- 85
2019-06-20 21:00:00 15 12 Nordeste 33 Nordeste 0 -- -- 79
2019-06-20 20:00:00 17.1 6 Noroeste 40 Sudoeste 1 -- -- 75
2019-06-20 19:00:00 22.5 12 Sur 21 Nordeste 0 -- -- 46
2019-06-20 18:00:00 25.2 7 Norte 26 Este 0 -- -- 38
2019-06-20 17:00:00 23.4 12 Este 24 Norte 0 -- -- 46
2019-06-20 16:00:00 23.8 13 Este 29 Norte 0 -- -- 44
2019-06-20 15:00:00 23 8 Norte 18 Norte 0 -- -- 45
2019-06-20 14:00:00 21.8 8 Norte 19 Nordeste 0 -- -- 48
2019-06-20 13:00:00 21 8 Norte 22 Nordeste 0 -- -- 52
2019-06-20 12:00:00 20.1 7 Este 17 Este 0 -- -- 59
2019-06-20 11:00:00 17.2 8 Este 18 Nordeste 0 -- -- 71
2019-06-20 10:00:00 16.2 10 Este 18 Este 0 -- -- 75
2019-06-20 09:00:00 14.2 11 Este 18 Este 0 -- -- 84
2019-06-20 08:00:00 12.6 9 Este 17 Este 0 -- -- 88
2019-06-20 07:00:00 11.4 6 Nordeste 12 Este 0 -- -- 87
2019-06-20 06:00:00 12.1 6 Nordeste 10 Este 0 -- -- 85
2019-06-20 05:00:00 11.9 5 Este 9 Nordeste 0 -- -- 82
2019-06-20 04:00:00 12.5 5 Nordeste 13 Nordeste 0 -- -- 76
2019-06-20 03:00:00 12.3 5 Este 13 Norte 0 -- -- 79
2019-06-20 02:00:00 12.1 3 Norte 11 Norte 0 -- -- 77
2019-06-20 01:00:00 12.3 3 Sudeste 6 Sudeste 0 -- -- 74
2019-06-20 00:00:00 13.4 3 Sudoeste 7 Sudoeste 0 -- -- 70
2019-06-19 23:00:00 15.3 0 Calma 8 Noroeste 0 -- -- 65
2019-06-19 22:00:00 18.9 9 Noroeste 24 Oeste 0 -- -- 54
2019-06-19 21:00:00 21.2 17 Oeste 31 Oeste 0 -- -- 49
2019-06-19 20:00:00 22.4 19 Oeste 33 Oeste 0 -- -- 47
2019-06-19 19:00:00 23.5 19 Oeste 33 Oeste 0 -- -- 46
2019-06-19 18:00:00 23.3 18 Oeste 31 Oeste 0 -- -- 45
2019-06-19 17:00:00 22.8 19 Oeste 37 Oeste 0 -- -- 49
2019-06-19 16:00:00 22.8 24 Oeste 36 Oeste 0 -- -- 48
2019-06-19 15:00:00 23.1 21 Oeste -- -- -- -- -- 46
2019-06-19 14:00:00 -- -- -- -- -- -- -- -- --
2019-06-19 13:00:00 19.2 17 Sudoeste 31 Sudoeste 0 -- -- 70
2019-06-19 12:00:00 16.2 9 Sudoeste 20 Oeste 0.2 -- -- 89
2019-06-19 11:00:00 14.8 12 Oeste 27 Oeste 0.4 -- -- 90
2019-06-19 10:00:00 16.2 14 Oeste 23 Oeste 0 -- -- 77
2019-06-19 09:00:00 15.5 9 Oeste 15 Sudoeste 0 -- -- 79
2019-06-19 08:00:00 14.4 9 Sudoeste 14 Sudoeste 0 -- -- 85
2019-06-19 07:00:00 13.6 8 Sudoeste 15 Sudoeste 0 -- -- 88
2019-06-19 06:00:00 12.4 6 Sudoeste 12 Sudoeste 0 -- -- 92
2019-06-19 05:00:00 11.4 0 Calma 6 Sudoeste 0 -- -- 88
2019-06-19 04:00:00 12 2 Oeste 11 Sudoeste 0 -- -- 85
2019-06-19 03:00:00 12.3 5 Sudoeste 11 Oeste 0 -- -- 85
2019-06-19 02:00:00 12.7 4 Sudoeste 6 Sudoeste 0 -- -- 79
2019-06-19 01:00:00 13.5 0 Calma 7 Sudeste 0 -- -- 79
2019-06-19 00:00:00 15 3 Sudeste 8 Sudoeste 0 -- -- 75
2019-06-18 23:00:00 17 5 Sudoeste 24 Noroeste 0 -- -- 69
2019-06-18 22:00:00 18.7 16 Noroeste 33 Noroeste 0 -- -- 61
2019-06-18 21:00:00 21.8 22 Oeste 41 Oeste 0 -- -- 47
2019-06-18 20:00:00 22.3 23 Oeste 44 Oeste 0 -- -- 44
2019-06-18 19:00:00 23.3 30 Sudoeste 50 Oeste 0 -- -- 41
2019-06-18 18:00:00 24.6 30 Oeste 50 Oeste 0 -- -- 42
2019-06-18 17:00:00 25.1 24 Oeste 53 Oeste 0 -- -- 36
2019-06-18 16:00:00 25.6 27 Oeste 50 Oeste 0 -- -- 34
2019-06-18 15:00:00 26.6 28 Sudoeste 54 Oeste 0 -- -- 28
2019-06-18 14:00:00 25.7 30 Sudoeste 57 Sudoeste 0 -- -- 28
2019-06-18 13:00:00 25.5 28 Sudoeste 48 Oeste 0 -- -- 18
2019-06-18 12:00:00 24.5 30 Oeste 45 Sudoeste 0 -- -- 19
2019-06-18 11:00:00 23.3 19 Sudoeste 33 Sudoeste 0 -- -- 27
2019-06-18 10:00:00 20.8 14 Oeste 27 Oeste 0 -- -- 42
2019-06-18 09:00:00 17.9 6 Sudoeste 13 Sudoeste 0 -- -- 47
2019-06-18 08:00:00 12.8 4 Noroeste 10 Oeste 0 -- -- 59
2019-06-18 07:00:00 11.3 4 Sur 12 Sudeste 0 -- -- 59
2019-06-18 06:00:00 9.5 0 Calma 7 Sur 0 -- -- 66
2019-06-18 05:00:00 11.4 0 Calma 10 Sudeste 0 -- -- 60
2019-06-18 04:00:00 13.6 6 Sur 11 Sudeste 0 -- -- 50
2019-06-18 03:00:00 15.3 0 Calma 10 Nordeste 0 -- -- 47
2019-06-18 02:00:00 18.5 5 Nordeste 15 Este 0 -- -- 41
2019-06-18 01:00:00 19.6 7 Nordeste 17 Este 0 -- -- 38
2019-06-18 00:00:00 18.4 7 Noroeste 18 Sur 0 -- -- 43
2019-06-17 23:00:00 18.8 0 Calma 9 Noroeste 0 -- -- 44
2019-06-17 22:00:00 21.2 6 Noroeste 20 Norte 0 -- -- 35
2019-06-17 21:00:00 23.3 13 Noroeste 23 Noroeste 0 -- -- 29
2019-06-17 20:00:00 24.7 17 Noroeste 34 Noroeste 0 -- -- 26
2019-06-17 19:00:00 26 22 Noroeste 34 Oeste 0 -- -- 21
2019-06-17 18:00:00 27.1 14 Oeste 28 Oeste 0 -- -- 22
2019-06-17 17:00:00 27.2 17 Oeste 39 Oeste 0 -- -- 20
2019-06-17 16:00:00 29 20 Oeste 37 Oeste 0 -- -- 22
2019-06-17 15:00:00 28 8 Sudoeste 33 Sudoeste 0 -- -- 26
2019-06-17 14:00:00 27.7 17 Oeste 35 Oeste 0 -- -- 26
2019-06-17 13:00:00 26.7 12 Sudoeste 29 Sudoeste 0 -- -- 27
2019-06-17 12:00:00 24.9 14 Oeste 24 Noroeste 0 -- -- 36
2019-06-17 11:00:00 22.1 8 Oeste 16 Oeste 0 -- -- 41
2019-06-17 10:00:00 18.8 6 Oeste 13 Oeste 0 -- -- 48
2019-06-17 09:00:00 16 5 Sudoeste 9 Sudoeste 0 -- -- 50
2019-06-17 08:00:00 11 0 Calma 6 Sudeste 0 -- -- 78
2019-06-17 07:00:00 8.3 7 Sudeste 13 Sudeste 0 -- -- 84
2019-06-17 06:00:00 10.5 5 Nordeste 10 Sur 0 -- -- 84
2019-06-17 05:00:00 10.8 5 Sudoeste 14 Nordeste 0 -- -- 79
2019-06-17 04:00:00 11.8 7 Nordeste 11 Nordeste 0 -- -- 71
2019-06-17 03:00:00 13.6 4 Nordeste 12 Nordeste 0 -- -- 61
2019-06-17 02:00:00 12.9 6 Este 14 Nordeste 0 -- -- 54
2019-06-17 01:00:00 11.8 0 Calma 10 Sudeste 0 -- -- 61
2019-06-17 00:00:00 13.3 4 Sur 6 Sur 0 -- -- 58
2019-06-16 23:00:00 16.9 0 Calma 6 Sur 0 -- -- 52
2019-06-16 22:00:00 21.7 3 Norte 9 Noroeste 0 -- -- 34
2019-06-16 21:00:00 26.1 5 Oeste 13 Noroeste 0 -- -- 28
2019-06-16 20:00:00 26.4 9 Noroeste 20 Noroeste 0 -- -- 23
2019-06-16 19:00:00 27.1 15 Noroeste 24 Oeste 0 -- -- 21
2019-06-16 18:00:00 27.4 11 Noroeste 23 Oeste 0 -- -- 20
2019-06-16 17:00:00 27.6 15 Oeste 23 Oeste 0 -- -- 21
2019-06-16 16:00:00 27 11 Sur 21 Sur 0 -- -- 24
2019-06-16 15:00:00 26.4 8 Nordeste 21 Sudeste 0 -- -- 24
2019-06-16 14:00:00 25.6 6 Sudoeste 17 Noroeste 0 -- -- 27
2019-06-16 13:00:00 24.2 6 Norte 14 Nordeste 0 -- -- 33
2019-06-16 12:00:00 21.4 8 Norte 14 Nordeste 0 -- -- 41
2019-06-16 11:00:00 18.7 6 Norte 12 Norte 0 -- -- 49
2019-06-16 10:00:00 15.4 6 Este 17 Nordeste 0 -- -- 59
2019-06-16 09:00:00 12.2 11 Este 20 Este 0 -- -- 70
2019-06-16 08:00:00 9.3 13 Nordeste 23 Nordeste 0 -- -- 80
2019-06-16 07:00:00 7.4 10 Nordeste 20 Nordeste 0 -- -- 87
2019-06-16 06:00:00 7.7 7 Nordeste 19 Nordeste 0 -- -- 86
2019-06-16 05:00:00 8.5 10 Nordeste 21 Este 0 -- -- 84
2019-06-16 04:00:00 8.8 8 Nordeste 19 Este 0 -- -- 83
2019-06-16 03:00:00 10.2 13 Nordeste 21 Nordeste 0 -- -- 79
2019-06-16 02:00:00 10.9 6 Este 18 Nordeste 0 -- -- 76
2019-06-16 01:00:00 12.5 9 Nordeste 20 Este 0 -- -- 72
2019-06-16 00:00:00 10.7 0 Calma 10 Oeste 0 -- -- 60